createdAt,value
2022-08-05T00:04:33.516Z,100.00
2022-08-05T00:09:37.209Z,100.00
2022-08-05T00:14:42.265Z,100.00
2022-08-05T00:20:02.444Z,100.00
2022-08-05T00:25:08.370Z,100.00
2022-08-05T00:30:17.669Z,100.00
2022-08-05T00:35:21.698Z,100.00
2022-08-05T00:40:51.911Z,100.00
2022-08-05T00:45:58.401Z,100.00
2022-08-05T00:51:02.831Z,100.00
2022-08-05T00:56:26.493Z,100.00
2022-08-05T01:01:42.916Z,100.00
2022-08-05T01:06:52.957Z,100.00
2022-08-05T01:12:09.263Z,100.00
2022-08-05T01:17:29.165Z,100.00
2022-08-05T01:22:57.182Z,100.00
2022-08-05T01:28:16.766Z,100.00
2022-08-05T01:33:25.247Z,100.00
2022-08-05T01:38:31.039Z,100.00
2022-08-05T01:43:37.423Z,100.00
2022-08-05T01:48:49.775Z,100.00
2022-08-05T01:53:58.542Z,100.00
2022-08-05T01:59:08.007Z,100.00
2022-08-05T02:04:13.125Z,100.00
2022-08-05T02:09:17.037Z,100.00
2022-08-05T02:14:32.080Z,100.00
2022-08-05T02:19:46.934Z,100.00
2022-08-05T02:24:53.595Z,100.00
2022-08-05T02:30:02.168Z,100.00
2022-08-05T02:35:14.197Z,100.00
2022-08-05T02:40:18.591Z,100.00
2022-08-05T02:45:25.668Z,100.00
2022-08-05T02:50:30.421Z,100.00
2022-08-05T02:55:54.688Z,100.00
2022-08-05T03:01:02.667Z,100.00
2022-08-05T03:06:56.224Z,100.00
2022-08-05T03:11:56.530Z,100.00
2022-08-05T03:16:55.761Z,100.00
2022-08-05T03:21:59.581Z,100.00
2022-08-05T03:27:03.442Z,100.00
2022-08-05T03:32:12.452Z,100.00
2022-08-05T03:37:18.125Z,100.00
2022-08-05T03:42:22.002Z,100.00
2022-08-05T03:47:35.204Z,100.00
2022-08-05T03:55:34.516Z,100.00
2022-08-05T03:58:17.513Z,100.00
2022-08-05T04:03:28.243Z,100.00
2022-08-05T04:08:36.250Z,100.00
2022-08-05T04:13:50.421Z,100.00
2022-08-05T04:18:57.796Z,100.00
2022-08-05T04:24:06.700Z,100.00
2022-08-05T04:29:12.864Z,100.00
2022-08-05T04:34:33.117Z,100.00
2022-08-05T04:39:39.153Z,100.00
2022-08-05T04:44:43.673Z,100.00
2022-08-05T04:50:01.474Z,100.00
2022-08-05T04:55:14.413Z,100.00
2022-08-05T05:00:19.359Z,100.00
2022-08-05T05:05:29.406Z,100.00
2022-08-05T05:10:34.711Z,100.00
2022-08-05T05:15:57.219Z,100.00
2022-08-05T05:21:04.350Z,98.45
2022-08-05T05:26:09.348Z,81.95
2022-08-05T05:31:13.355Z,71.42
2022-08-05T05:36:18.478Z,73.28
2022-08-05T05:41:23.395Z,77.79
2022-08-05T05:46:27.775Z,82.88
2022-08-05T05:51:49.586Z,84.49
2022-08-05T05:56:53.734Z,89.19
2022-08-05T06:01:58.183Z,89.25
2022-08-05T06:07:03.831Z,86.30
2022-08-05T06:12:09.515Z,84.56
2022-08-05T06:17:22.334Z,70.15
2022-08-05T06:22:33.304Z,71.83
2022-08-05T06:28:12.138Z,72.40
2022-08-05T06:33:01.873Z,74.82
2022-08-05T06:38:11.199Z,75.67
2022-08-05T06:43:59.228Z,74.14
2022-08-05T06:48:56.888Z,77.40
2022-08-05T06:54:05.528Z,78.18
2022-08-05T06:59:14.545Z,79.27
2022-08-05T07:04:24.378Z,73.39
2022-08-05T07:09:32.392Z,73.08
2022-08-05T07:15:10.295Z,75.61
2022-08-05T07:20:32.868Z,76.72
2022-08-05T07:25:56.493Z,75.12
2022-08-05T07:31:01.172Z,70.26
2022-08-05T07:36:21.498Z,70.77
2022-08-05T07:42:13.860Z,71.61
2022-08-05T07:47:01.764Z,66.70
2022-08-05T07:52:11.766Z,66.37
2022-08-05T07:57:41.678Z,66.16
2022-08-05T08:03:13.249Z,67.31
2022-08-05T08:08:07.919Z,66.14
2022-08-05T08:13:21.983Z,63.60
2022-08-05T08:18:33.097Z,61.28
2022-08-05T08:24:01.457Z,61.38
2022-08-05T08:29:29.504Z,59.34
2022-08-05T08:34:30.867Z,60.95
2022-08-05T08:39:38.165Z,60.00
2022-08-05T08:45:25.273Z,57.50
2022-08-05T08:50:32.220Z,57.50
2022-08-05T08:56:02.849Z,55.01
2022-08-05T09:01:16.469Z,49.66
2022-08-05T09:06:27.847Z,48.50
2022-08-05T09:11:50.724Z,51.33
2022-08-05T09:16:59.152Z,48.43
2022-08-05T09:22:24.908Z,48.40
2022-08-05T09:28:05.219Z,44.84
2022-08-05T09:33:04.542Z,44.42
2022-08-05T09:38:17.763Z,45.98
2022-08-05T09:43:40.249Z,47.15
2022-08-05T09:49:06.552Z,44.46
2022-08-05T09:54:11.556Z,44.21
2022-08-05T09:59:18.636Z,44.78
2022-08-05T10:04:41.088Z,43.47
2022-08-05T10:10:14.212Z,43.86
2022-08-05T10:15:25.647Z,44.44
2022-08-05T10:20:33.084Z,44.15
2022-08-05T10:25:37.190Z,45.36
2022-08-05T10:32:47.137Z,44.94
2022-08-05T10:36:07.187Z,39.14
2022-08-05T10:41:23.665Z,39.42
2022-08-05T10:46:44.375Z,40.30
2022-08-05T10:52:10.250Z,44.50
2022-08-05T10:57:29.693Z,42.84
2022-08-05T11:02:38.765Z,41.16
2022-08-05T11:08:17.087Z,41.99
2022-08-05T11:13:54.923Z,40.17
2022-08-05T11:20:10.613Z,42.35
2022-08-05T11:26:05.735Z,40.73
2022-08-05T11:31:58.023Z,38.70
2022-08-05T11:36:54.910Z,33.50
2022-08-05T11:42:04.554Z,32.62
2022-08-05T11:47:15.239Z,32.06
2022-08-05T11:52:29.036Z,31.61
2022-08-05T11:57:39.339Z,30.13
2022-08-05T12:02:58.770Z,28.74
2022-08-05T12:08:09.840Z,27.66
2022-08-05T12:13:18.818Z,27.33
2022-08-05T12:18:42.727Z,27.89
2022-08-05T12:23:54.954Z,27.17
2022-08-05T12:28:58.603Z,25.91
2022-08-05T12:34:05.018Z,27.04
2022-08-05T12:39:11.277Z,26.76
2022-08-05T12:44:28.494Z,27.36
2022-08-05T12:50:04.652Z,25.93
2022-08-05T12:55:22.363Z,27.48
2022-08-05T13:02:02.756Z,24.33
2022-08-05T13:05:55.200Z,24.42
2022-08-05T13:11:01.736Z,24.07
2022-08-05T13:16:15.364Z,26.57
2022-08-05T13:21:22.702Z,25.52
2022-08-05T13:26:32.325Z,25.25
2022-08-05T13:32:03.846Z,25.63
2022-08-05T13:37:02.346Z,25.40
2022-08-05T13:42:06.446Z,24.93
2022-08-05T13:47:10.495Z,23.07
2022-08-05T13:52:38.785Z,20.88
2022-08-05T13:57:50.775Z,22.37
2022-08-05T14:02:57.070Z,23.21
2022-08-05T14:08:20.269Z,22.24
2022-08-05T14:13:25.715Z,23.53
2022-08-05T14:18:30.264Z,25.01
2022-08-05T14:23:37.265Z,24.45
2022-08-05T14:28:52.298Z,21.78
2022-08-05T14:34:00.551Z,20.61
2022-08-05T14:39:06.896Z,22.03
2022-08-05T14:44:21.759Z,23.28
2022-08-05T14:49:25.749Z,23.19
2022-08-05T14:54:52.925Z,22.81
2022-08-05T14:59:57.174Z,23.10
2022-08-05T15:05:02.490Z,21.52
2022-08-05T15:10:18.467Z,20.98
2022-08-05T15:15:55.049Z,22.39
2022-08-05T15:20:56.492Z,23.13
2022-08-05T15:26:03.087Z,24.01
2022-08-05T15:31:07.096Z,22.68
2022-08-05T15:36:17.746Z,21.17
2022-08-05T15:41:55.838Z,22.34
2022-08-05T15:46:53.913Z,22.71
2022-08-05T15:52:13.239Z,22.66
2022-08-05T15:57:24.884Z,20.53
2022-08-05T16:02:31.871Z,20.92
2022-08-05T16:07:36.305Z,21.01
2022-08-05T16:12:41.645Z,21.40
2022-08-05T16:17:57.314Z,22.71
2022-08-05T16:23:02.033Z,26.29
2022-08-05T16:28:09.440Z,27.19
2022-08-05T16:33:14.274Z,30.67
2022-08-05T16:38:25.655Z,36.06
2022-08-05T16:43:34.880Z,40.26
2022-08-05T16:48:39.279Z,42.99
2022-08-05T16:54:04.365Z,44.55
2022-08-05T16:59:10.295Z,47.50
2022-08-05T17:04:15.035Z,48.01
2022-08-05T17:09:19.168Z,49.91
2022-08-05T17:14:36.773Z,51.54
2022-08-05T17:19:45.603Z,50.40
2022-08-05T17:24:58.136Z,51.83
2022-08-05T17:30:12.146Z,54.18
2022-08-05T17:35:23.028Z,56.39
2022-08-05T17:40:26.857Z,57.58
2022-08-05T17:45:38.600Z,56.97
2022-08-05T17:50:43.154Z,56.98
2022-08-05T17:55:46.796Z,57.71
2022-08-05T18:00:51.908Z,58.03
2022-08-05T18:06:04.014Z,59.19
2022-08-05T18:11:08.362Z,60.12
2022-08-05T18:16:20.240Z,59.20
2022-08-05T18:21:26.148Z,59.87
2022-08-05T18:26:32.090Z,60.78
2022-08-05T18:31:38.002Z,61.71
2022-08-05T18:36:46.907Z,61.01
2022-08-05T18:42:01.232Z,61.97
2022-08-05T18:47:12.198Z,61.69
2022-08-05T18:52:35.949Z,61.91
2022-08-05T18:57:43.678Z,62.60
2022-08-05T19:03:04.006Z,65.55
2022-08-05T19:08:12.271Z,65.11
2022-08-05T19:13:20.447Z,65.35
2022-08-05T19:18:25.675Z,66.06
2022-08-05T19:24:06.525Z,68.45
2022-08-05T19:28:55.496Z,68.80
2022-08-05T19:34:02.268Z,68.81
2022-08-05T19:39:07.648Z,68.43
2022-08-05T19:44:13.408Z,70.67
2022-08-05T19:49:19.308Z,72.19
2022-08-05T19:54:29.487Z,74.55
2022-08-05T19:59:59.467Z,75.82
2022-08-05T20:05:01.105Z,81.52
2022-08-05T20:10:13.157Z,89.17
2022-08-05T20:15:23.374Z,89.69
2022-08-05T20:20:46.724Z,89.80
2022-08-05T20:25:52.316Z,89.34
2022-08-05T20:30:57.358Z,90.52
2022-08-05T20:36:03.051Z,93.24
2022-08-05T20:41:08.061Z,95.01
2022-08-05T20:46:18.248Z,94.51
2022-08-05T20:51:23.861Z,95.29
2022-08-05T20:56:29.829Z,100.00
2022-08-05T21:01:38.671Z,100.00
2022-08-05T21:06:45.514Z,100.00
2022-08-05T21:12:09.644Z,100.00
2022-08-05T21:17:13.769Z,100.00
2022-08-05T21:22:23.509Z,100.00
2022-08-05T21:27:28.095Z,100.00
2022-08-05T21:32:42.484Z,100.00
2022-08-05T21:37:53.282Z,100.00
2022-08-05T21:42:59.064Z,100.00
2022-08-05T21:48:09.973Z,100.00
2022-08-05T21:54:18.159Z,100.00
2022-08-05T22:00:14.411Z,100.00
2022-08-05T22:05:27.419Z,100.00
2022-08-05T22:10:46.496Z,100.00
2022-08-05T22:16:41.491Z,100.00
2022-08-05T22:21:50.750Z,100.00
2022-08-05T22:27:16.672Z,100.00
2022-08-05T22:32:21.055Z,100.00
2022-08-05T22:37:58.051Z,100.00
2022-08-05T22:42:57.808Z,100.00
2022-08-05T22:48:01.954Z,100.00
2022-08-05T22:53:09.852Z,100.00
2022-08-05T22:58:15.009Z,100.00
2022-08-05T23:03:58.833Z,100.00
2022-08-05T23:08:55.651Z,100.00
2022-08-05T23:14:22.394Z,100.00
2022-08-05T23:19:26.427Z,100.00
2022-08-05T23:24:30.196Z,100.00
2022-08-05T23:29:35.202Z,100.00
2022-08-05T23:34:40.420Z,100.00
2022-08-05T23:39:53.680Z,100.00
2022-08-05T23:44:59.072Z,100.00
2022-08-05T23:50:03.147Z,100.00
2022-08-05T23:55:13.200Z,100.00
